sensor_id;sensor_type;location;lat;lon;timestamp;pressure;altitude;pressure_sealevel;temperature;humidity
50011;BME280;35899;50.352;19.390;2023-04-09T00:01:18;98371.59;;;4.12;100.00
50011;BME280;35899;50.352;19.390;2023-04-09T00:03:49;98371.98;;;4.10;100.00
50011;BME280;35899;50.352;19.390;2023-04-09T00:06:20;98373.07;;;4.09;100.00
50011;BME280;35899;50.352;19.390;2023-04-09T00:08:48;98371.83;;;4.10;100.00
50011;BME280;35899;50.352;19.390;2023-04-09T00:11:16;98375.25;;;4.10;100.00
50011;BME280;35899;50.352;19.390;2023-04-09T00:13:44;98373.89;;;4.10;100.00
50011;BME280;35899;50.352;19.390;2023-04-09T00:16:12;98374.37;;;4.10;100.00
50011;BME280;35899;50.352;19.390;2023-04-09T00:18:40;98374.19;;;4.11;100.00
50011;BME280;35899;50.352;19.390;2023-04-09T00:21:08;98374.41;;;4.09;100.00
50011;BME280;35899;50.352;19.390;2023-04-09T00:23:39;98376.05;;;4.07;100.00
50011;BME280;35899;50.352;19.390;2023-04-09T00:26:07;98381.61;;;4.05;100.00
50011;BME280;35899;50.352;19.390;2023-04-09T00:28:35;98385.45;;;4.03;100.00
50011;BME280;35899;50.352;19.390;2023-04-09T00:31:03;98383.31;;;4.01;100.00
50011;BME280;35899;50.352;19.390;2023-04-09T00:33:30;98380.84;;;3.98;100.00
50011;BME280;35899;50.352;19.390;2023-04-09T00:35:58;98379.58;;;3.95;100.00
50011;BME280;35899;50.352;19.390;2023-04-09T00:38:26;98385.69;;;3.92;100.00
50011;BME280;35899;50.352;19.390;2023-04-09T00:40:54;98380.00;;;3.88;100.00
50011;BME280;35899;50.352;19.390;2023-04-09T00:43:22;98378.42;;;3.84;100.00
50011;BME280;35899;50.352;19.390;2023-04-09T00:45:50;98371.20;;;3.80;100.00
50011;BME280;35899;50.352;19.390;2023-04-09T00:48:17;98370.13;;;3.77;100.00
50011;BME280;35899;50.352;19.390;2023-04-09T00:50:48;98367.20;;;3.72;100.00
50011;BME280;35899;50.352;19.390;2023-04-09T00:53:16;98367.00;;;3.68;100.00
50011;BME280;35899;50.352;19.390;2023-04-09T00:55:44;98367.98;;;3.64;100.00
50011;BME280;35899;50.352;19.390;2023-04-09T00:58:12;98368.77;;;3.62;100.00
50011;BME280;35899;50.352;19.390;2023-04-09T01:00:40;98364.75;;;3.59;100.00
50011;BME280;35899;50.352;19.390;2023-04-09T01:03:08;98365.48;;;3.58;100.00
50011;BME280;35899;50.352;19.390;2023-04-09T01:10:56;98372.44;;;3.54;100.00
50011;BME280;35899;50.352;19.390;2023-04-09T01:13:38;98380.89;;;3.53;100.00
50011;BME280;35899;50.352;19.390;2023-04-09T01:16:09;98375.59;;;3.52;100.00
50011;BME280;35899;50.352;19.390;2023-04-09T01:18:43;98376.83;;;3.56;100.00
50011;BME280;35899;50.352;19.390;2023-04-09T01:21:19;98376.05;;;3.59;100.00
50011;BME280;35899;50.352;19.390;2023-04-09T01:23:55;98380.05;;;3.62;100.00
50011;BME280;35899;50.352;19.390;2023-04-09T01:28:58;98378.73;;;3.65;100.00
50011;BME280;35899;50.352;19.390;2023-04-09T01:31:27;98379.08;;;3.65;100.00
50011;BME280;35899;50.352;19.390;2023-04-09T01:33:56;98376.55;;;3.65;100.00
50011;BME280;35899;50.352;19.390;2023-04-09T01:36:24;98376.20;;;3.65;100.00
50011;BME280;35899;50.352;19.390;2023-04-09T01:38:52;98376.03;;;3.64;100.00
50011;BME280;35899;50.352;19.390;2023-04-09T01:41:25;98379.08;;;3.65;100.00
50011;BME280;35899;50.352;19.390;2023-04-09T01:43:53;98376.86;;;3.65;100.00
50011;BME280;35899;50.352;19.390;2023-04-09T01:46:21;98375.64;;;3.66;100.00
50011;BME280;35899;50.352;19.390;2023-04-09T01:48:51;98372.36;;;3.67;100.00
50011;BME280;35899;50.352;19.390;2023-04-09T01:51:19;98372.15;;;3.67;100.00
50011;BME280;35899;50.352;19.390;2023-04-09T01:53:47;98371.64;;;3.68;100.00
50011;BME280;35899;50.352;19.390;2023-04-09T01:56:18;98377.48;;;3.67;100.00
50011;BME280;35899;50.352;19.390;2023-04-09T01:58:46;98378.88;;;3.67;100.00
50011;BME280;35899;50.352;19.390;2023-04-09T02:01:26;98379.92;;;3.66;100.00
50011;BME280;35899;50.352;19.390;2023-04-09T02:03:57;98377.54;;;3.65;100.00
50011;BME280;35899;50.352;19.390;2023-04-09T02:09:14;98376.80;;;3.62;100.00
50011;BME280;35899;50.352;19.390;2023-04-09T02:11:44;98377.21;;;3.60;100.00
50011;BME280;35899;50.352;19.390;2023-04-09T02:14:12;98378.40;;;3.60;100.00
50011;BME280;35899;50.352;19.390;2023-04-09T02:16:41;98379.45;;;3.60;100.00
50011;BME280;35899;50.352;19.390;2023-04-09T02:19:10;98382.75;;;3.59;100.00
50011;BME280;35899;50.352;19.390;2023-04-09T02:21:38;98381.39;;;3.58;100.00
50011;BME280;35899;50.352;19.390;2023-04-09T02:24:06;98381.36;;;3.59;100.00
50011;BME280;35899;50.352;19.390;2023-04-09T02:26:34;98376.50;;;3.61;100.00
50011;BME280;35899;50.352;19.390;2023-04-09T02:29:04;98370.11;;;3.63;100.00
50011;BME280;35899;50.352;19.390;2023-04-09T02:31:32;98370.07;;;3.64;100.00
50011;BME280;35899;50.352;19.390;2023-04-09T02:34:00;98373.16;;;3.63;100.00
50011;BME280;35899;50.352;19.390;2023-04-09T02:36:28;98366.92;;;3.61;100.00
50011;BME280;35899;50.352;19.390;2023-04-09T02:38:56;98370.10;;;3.58;100.00
50011;BME280;35899;50.352;19.390;2023-04-09T02:41:23;98371.58;;;3.55;100.00
50011;BME280;35899;50.352;19.390;2023-04-09T02:43:51;98374.77;;;3.51;100.00
50011;BME280;35899;50.352;19.390;2023-04-09T02:46:19;98378.98;;;3.48;100.00
50011;BME280;35899;50.352;19.390;2023-04-09T02:48:47;98378.66;;;3.47;100.00
50011;BME280;35899;50.352;19.390;2023-04-09T02:51:18;98375.85;;;3.44;100.00
50011;BME280;35899;50.352;19.390;2023-04-09T02:53:48;98376.07;;;3.43;100.00
50011;BME280;35899;50.352;19.390;2023-04-09T02:56:16;98376.60;;;3.43;100.00
50011;BME280;35899;50.352;19.390;2023-04-09T02:58:43;98374.33;;;3.44;100.00
50011;BME280;35899;50.352;19.390;2023-04-09T03:01:11;98370.45;;;3.47;100.00
50011;BME280;35899;50.352;19.390;2023-04-09T03:03:39;98368.85;;;3.49;100.00
50011;BME280;35899;50.352;19.390;2023-04-09T03:06:07;98370.25;;;3.53;100.00
50011;BME280;35899;50.352;19.390;2023-04-09T03:08:37;98370.54;;;3.56;100.00
50011;BME280;35899;50.352;19.390;2023-04-09T03:11:05;98369.41;;;3.58;100.00
50011;BME280;35899;50.352;19.390;2023-04-09T03:13:33;98367.13;;;3.60;100.00
50011;BME280;35899;50.352;19.390;2023-04-09T03:16:06;98366.21;;;3.61;100.00
50011;BME280;35899;50.352;19.390;2023-04-09T03:18:35;98365.36;;;3.61;100.00
50011;BME280;35899;50.352;19.390;2023-04-09T03:21:06;98366.27;;;3.60;100.00
50011;BME280;35899;50.352;19.390;2023-04-09T03:23:35;98368.83;;;3.60;100.00
50011;BME280;35899;50.352;19.390;2023-04-09T03:26:04;98372.79;;;3.59;100.00
50011;BME280;35899;50.352;19.390;2023-04-09T03:28:46;98374.35;;;3.59;100.00
50011;BME280;35899;50.352;19.390;2023-04-09T03:31:14;98378.83;;;3.58;100.00
50011;BME280;35899;50.352;19.390;2023-04-09T03:33:45;98379.34;;;3.58;100.00
50011;BME280;35899;50.352;19.390;2023-04-09T03:36:18;98376.19;;;3.60;100.00
50011;BME280;35899;50.352;19.390;2023-04-09T03:39:15;98374.39;;;3.62;100.00
50011;BME280;35899;50.352;19.390;2023-04-09T03:41:43;98376.92;;;3.64;100.00
50011;BME280;35899;50.352;19.390;2023-04-09T03:44:14;98375.23;;;3.63;100.00
50011;BME280;35899;50.352;19.390;2023-04-09T03:46:55;98377.92;;;3.64;100.00
50011;BME280;35899;50.352;19.390;2023-04-09T03:49:24;98379.16;;;3.63;100.00
50011;BME280;35899;50.352;19.390;2023-04-09T03:51:53;98381.97;;;3.61;100.00
50011;BME280;35899;50.352;19.390;2023-04-09T03:54:22;98382.86;;;3.60;100.00
50011;BME280;35899;50.352;19.390;2023-04-09T03:56:53;98384.06;;;3.60;100.00
50011;BME280;35899;50.352;19.390;2023-04-09T03:59:22;98379.69;;;3.58;100.00
50011;BME280;35899;50.352;19.390;2023-04-09T04:01:50;98380.91;;;3.57;100.00
50011;BME280;35899;50.352;19.390;2023-04-09T04:04:19;98383.48;;;3.57;100.00
50011;BME280;35899;50.352;19.390;2023-04-09T04:06:56;98379.36;;;3.57;100.00
50011;BME280;35899;50.352;19.390;2023-04-09T04:09:36;98373.60;;;3.56;100.00
50011;BME280;35899;50.352;19.390;2023-04-09T04:12:08;98366.35;;;3.52;100.00
50011;BME280;35899;50.352;19.390;2023-04-09T04:14:51;98366.65;;;3.49;100.00
50011;BME280;35899;50.352;19.390;2023-04-09T04:17:28;98366.77;;;3.45;100.00
50011;BME280;35899;50.352;19.390;2023-04-09T04:19:56;98367.52;;;3.43;100.00
50011;BME280;35899;50.352;19.390;2023-04-09T04:22:23;98366.92;;;3.41;100.00
50011;BME280;35899;50.352;19.390;2023-04-09T04:24:55;98370.45;;;3.38;100.00
50011;BME280;35899;50.352;19.390;2023-04-09T04:27:23;98365.47;;;3.33;100.00
50011;BME280;35899;50.352;19.390;2023-04-09T04:29:51;98369.88;;;3.29;100.00
50011;BME280;35899;50.352;19.390;2023-04-09T04:32:40;98374.09;;;3.26;100.00
50011;BME280;35899;50.352;19.390;2023-04-09T04:35:10;98374.34;;;3.24;100.00
50011;BME280;35899;50.352;19.390;2023-04-09T04:37:38;98377.95;;;3.23;100.00
50011;BME280;35899;50.352;19.390;2023-04-09T04:40:06;98381.79;;;3.21;100.00
50011;BME280;35899;50.352;19.390;2023-04-09T04:42:37;98385.77;;;3.20;100.00
50011;BME280;35899;50.352;19.390;2023-04-09T04:45:09;98391.79;;;3.18;100.00
50011;BME280;35899;50.352;19.390;2023-04-09T04:47:43;98392.31;;;3.18;100.00
50011;BME280;35899;50.352;19.390;2023-04-09T04:50:10;98395.48;;;3.20;100.00
50011;BME280;35899;50.352;19.390;2023-04-09T04:52:50;98393.31;;;3.24;100.00
50011;BME280;35899;50.352;19.390;2023-04-09T04:55:19;98395.76;;;3.27;100.00
50011;BME280;35899;50.352;19.390;2023-04-09T04:57:49;98395.67;;;3.30;100.00
50011;BME280;35899;50.352;19.390;2023-04-09T05:00:18;98397.44;;;3.34;100.00
50011;BME280;35899;50.352;19.390;2023-04-09T05:02:47;98395.20;;;3.39;100.00
50011;BME280;35899;50.352;19.390;2023-04-09T05:05:22;98395.80;;;3.47;100.00
50011;BME280;35899;50.352;19.390;2023-04-09T05:07:52;98395.52;;;3.55;100.00
50011;BME280;35899;50.352;19.390;2023-04-09T05:10:21;98395.72;;;3.59;100.00
50011;BME280;35899;50.352;19.390;2023-04-09T05:12:52;98394.09;;;3.62;100.00
50011;BME280;35899;50.352;19.390;2023-04-09T05:15:26;98398.38;;;3.67;100.00
50011;BME280;35899;50.352;19.390;2023-04-09T05:17:54;98395.70;;;3.75;100.00
50011;BME280;35899;50.352;19.390;2023-04-09T05:20:22;98393.78;;;3.80;100.00
50011;BME280;35899;50.352;19.390;2023-04-09T05:22:59;98396.84;;;3.86;100.00
50011;BME280;35899;50.352;19.390;2023-04-09T05:25:30;98399.73;;;3.91;100.00
50011;BME280;35899;50.352;19.390;2023-04-09T05:27:59;98402.65;;;3.97;100.00
50011;BME280;35899;50.352;19.390;2023-04-09T05:30:29;98403.57;;;3.99;100.00
50011;BME280;35899;50.352;19.390;2023-04-09T05:32:57;98402.73;;;4.03;100.00
50011;BME280;35899;50.352;19.390;2023-04-09T05:35:26;98406.73;;;4.06;100.00
50011;BME280;35899;50.352;19.390;2023-04-09T05:37:54;98406.95;;;4.10;100.00
50011;BME280;35899;50.352;19.390;2023-04-09T05:40:22;98410.98;;;4.12;100.00
50011;BME280;35899;50.352;19.390;2023-04-09T05:42:52;98408.34;;;4.14;100.00
50011;BME280;35899;50.352;19.390;2023-04-09T05:45:41;98412.05;;;4.16;100.00
50011;BME280;35899;50.352;19.390;2023-04-09T05:48:09;98409.75;;;4.18;100.00
50011;BME280;35899;50.352;19.390;2023-04-09T05:50:37;98409.42;;;4.22;100.00
50011;BME280;35899;50.352;19.390;2023-04-09T05:53:21;98414.95;;;4.25;100.00
50011;BME280;35899;50.352;19.390;2023-04-09T05:55:49;98417.44;;;4.27;100.00
50011;BME280;35899;50.352;19.390;2023-04-09T05:58:18;98419.05;;;4.30;100.00
50011;BME280;35899;50.352;19.390;2023-04-09T06:00:46;98417.92;;;4.33;100.00
50011;BME280;35899;50.352;19.390;2023-04-09T06:03:14;98419.90;;;4.40;100.00
50011;BME280;35899;50.352;19.390;2023-04-09T06:05:43;98416.14;;;4.48;100.00
50011;BME280;35899;50.352;19.390;2023-04-09T06:08:11;98412.69;;;4.59;100.00
50011;BME280;35899;50.352;19.390;2023-04-09T06:10:39;98416.39;;;4.69;100.00
50011;BME280;35899;50.352;19.390;2023-04-09T06:13:08;98415.11;;;4.80;100.00
50011;BME280;35899;50.352;19.390;2023-04-09T06:15:37;98421.91;;;4.91;100.00
50011;BME280;35899;50.352;19.390;2023-04-09T06:18:05;98426.15;;;5.00;100.00
50011;BME280;35899;50.352;19.390;2023-04-09T06:20:33;98424.80;;;5.09;100.00
50011;BME280;35899;50.352;19.390;2023-04-09T06:23:01;98424.77;;;5.14;100.00
50011;BME280;35899;50.352;19.390;2023-04-09T06:25:31;98420.33;;;5.17;100.00
50011;BME280;35899;50.352;19.390;2023-04-09T06:27:59;98427.13;;;5.23;100.00
50011;BME280;35899;50.352;19.390;2023-04-09T06:30:28;98424.76;;;5.31;100.00
50011;BME280;35899;50.352;19.390;2023-04-09T06:32:55;98425.62;;;5.39;100.00
50011;BME280;35899;50.352;19.390;2023-04-09T06:35:23;98425.40;;;5.49;100.00
50011;BME280;35899;50.352;19.390;2023-04-09T06:37:51;98429.72;;;5.61;100.00
50011;BME280;35899;50.352;19.390;2023-04-09T06:40:19;98430.55;;;5.70;100.00
50011;BME280;35899;50.352;19.390;2023-04-09T06:42:49;98431.85;;;5.71;100.00
50011;BME280;35899;50.352;19.390;2023-04-09T06:45:22;98437.01;;;5.75;100.00
50011;BME280;35899;50.352;19.390;2023-04-09T06:47:50;98440.95;;;5.79;100.00
50011;BME280;35899;50.352;19.390;2023-04-09T06:50:18;98443.02;;;5.83;100.00
50011;BME280;35899;50.352;19.390;2023-04-09T06:52:46;98439.65;;;5.90;100.00
50011;BME280;35899;50.352;19.390;2023-04-09T06:55:16;98441.64;;;5.96;100.00
50011;BME280;35899;50.352;19.390;2023-04-09T06:57:44;98443.27;;;6.02;100.00
50011;BME280;35899;50.352;19.390;2023-04-09T07:00:12;98442.64;;;6.13;100.00
50011;BME280;35899;50.352;19.390;2023-04-09T07:02:40;98447.48;;;6.24;100.00
50011;BME280;35899;50.352;19.390;2023-04-09T07:05:11;98449.54;;;6.36;100.00
50011;BME280;35899;50.352;19.390;2023-04-09T07:07:40;98453.72;;;6.38;100.00
50011;BME280;35899;50.352;19.390;2023-04-09T07:10:18;98451.98;;;6.42;100.00
50011;BME280;35899;50.352;19.390;2023-04-09T07:12:48;98452.50;;;6.50;100.00
50011;BME280;35899;50.352;19.390;2023-04-09T07:15:16;98452.95;;;6.55;100.00
50011;BME280;35899;50.352;19.390;2023-04-09T07:17:47;98455.46;;;6.64;100.00
50011;BME280;35899;50.352;19.390;2023-04-09T07:20:17;98455.61;;;6.73;100.00
50011;BME280;35899;50.352;19.390;2023-04-09T07:22:46;98452.31;;;6.73;100.00
50011;BME280;35899;50.352;19.390;2023-04-09T07:25:19;98449.17;;;6.71;100.00
50011;BME280;35899;50.352;19.390;2023-04-09T07:27:57;98447.23;;;6.75;100.00
50011;BME280;35899;50.352;19.390;2023-04-09T07:30:25;98448.77;;;6.82;100.00
50011;BME280;35899;50.352;19.390;2023-04-09T07:32:53;98453.80;;;6.85;100.00
50011;BME280;35899;50.352;19.390;2023-04-09T07:35:21;98455.21;;;6.89;100.00
50011;BME280;35899;50.352;19.390;2023-04-09T07:37:48;98454.65;;;6.97;100.00
50011;BME280;35899;50.352;19.390;2023-04-09T07:40:16;98456.86;;;7.09;100.00
50011;BME280;35899;50.352;19.390;2023-04-09T07:42:49;98453.98;;;7.15;100.00
50011;BME280;35899;50.352;19.390;2023-04-09T07:45:17;98453.40;;;7.23;100.00
50011;BME280;35899;50.352;19.390;2023-04-09T07:47:48;98451.83;;;7.38;100.00
50011;BME280;35899;50.352;19.390;2023-04-09T07:50:16;98451.52;;;7.51;100.00
50011;BME280;35899;50.352;19.390;2023-04-09T07:52:44;98454.29;;;7.58;100.00
50011;BME280;35899;50.352;19.390;2023-04-09T07:55:14;98461.43;;;7.67;100.00
50011;BME280;35899;50.352;19.390;2023-04-09T07:57:43;98460.26;;;7.66;100.00
50011;BME280;35899;50.352;19.390;2023-04-09T08:00:12;98463.55;;;7.73;100.00
50011;BME280;35899;50.352;19.390;2023-04-09T08:02:39;98464.27;;;7.82;100.00
50011;BME280;35899;50.352;19.390;2023-04-09T08:05:08;98468.24;;;7.89;100.00
50011;BME280;35899;50.352;19.390;2023-04-09T08:07:39;98465.06;;;7.94;100.00
50011;BME280;35899;50.352;19.390;2023-04-09T08:10:07;98466.92;;;7.95;100.00
50011;BME280;35899;50.352;19.390;2023-04-09T08:12:35;98466.34;;;7.93;100.00
50011;BME280;35899;50.352;19.390;2023-04-09T08:15:03;98463.81;;;7.92;100.00
50011;BME280;35899;50.352;19.390;2023-04-09T08:17:31;98470.19;;;7.92;100.00
50011;BME280;35899;50.352;19.390;2023-04-09T08:20:01;98477.95;;;7.91;100.00
50011;BME280;35899;50.352;19.390;2023-04-09T08:22:29;98478.40;;;7.93;100.00
50011;BME280;35899;50.352;19.390;2023-04-09T08:24:57;98480.04;;;7.98;100.00
50011;BME280;35899;50.352;19.390;2023-04-09T08:27:37;98479.41;;;8.03;100.00
50011;BME280;35899;50.352;19.390;2023-04-09T08:30:06;98481.86;;;8.06;100.00
50011;BME280;35899;50.352;19.390;2023-04-09T08:32:34;98478.38;;;8.07;100.00
50011;BME280;35899;50.352;19.390;2023-04-09T08:35:02;98476.86;;;8.10;100.00
50011;BME280;35899;50.352;19.390;2023-04-09T08:37:29;98481.69;;;8.16;100.00
50011;BME280;35899;50.352;19.390;2023-04-09T08:39:57;98477.97;;;8.21;100.00
50011;BME280;35899;50.352;19.390;2023-04-09T08:42:25;98478.26;;;8.26;100.00
50011;BME280;35899;50.352;19.390;2023-04-09T08:44:54;98480.41;;;8.31;100.00
50011;BME280;35899;50.352;19.390;2023-04-09T08:47:22;98480.23;;;8.35;100.00
50011;BME280;35899;50.352;19.390;2023-04-09T08:49:50;98474.29;;;8.39;100.00
50011;BME280;35899;50.352;19.390;2023-04-09T08:52:19;98477.74;;;8.43;100.00
50011;BME280;35899;50.352;19.390;2023-04-09T08:54:57;98485.04;;;8.42;100.00
50011;BME280;35899;50.352;19.390;2023-04-09T08:57:25;98487.64;;;8.38;100.00
50011;BME280;35899;50.352;19.390;2023-04-09T08:59:53;98483.45;;;8.32;100.00
50011;BME280;35899;50.352;19.390;2023-04-09T09:02:24;98481.41;;;8.32;100.00
50011;BME280;35899;50.352;19.390;2023-04-09T09:04:52;98483.02;;;8.31;100.00
50011;BME280;35899;50.352;19.390;2023-04-09T09:07:20;98483.00;;;8.28;100.00
50011;BME280;35899;50.352;19.390;2023-04-09T09:12:40;98481.38;;;8.15;100.00
50011;BME280;35899;50.352;19.390;2023-04-09T09:15:26;98480.67;;;8.09;100.00
50011;BME280;35899;50.352;19.390;2023-04-09T09:17:55;98482.11;;;8.08;100.00
50011;BME280;35899;50.352;19.390;2023-04-09T09:20:32;98484.88;;;8.15;100.00
50011;BME280;35899;50.352;19.390;2023-04-09T09:23:01;98489.30;;;8.22;100.00
50011;BME280;35899;50.352;19.390;2023-04-09T09:25:29;98488.19;;;8.31;100.00
50011;BME280;35899;50.352;19.390;2023-04-09T09:28:05;98483.95;;;8.36;100.00
50011;BME280;35899;50.352;19.390;2023-04-09T09:30:33;98485.54;;;8.42;100.00
50011;BME280;35899;50.352;19.390;2023-04-09T09:33:05;98489.98;;;8.43;100.00
50011;BME280;35899;50.352;19.390;2023-04-09T09:35:47;98490.08;;;8.48;100.00
50011;BME280;35899;50.352;19.390;2023-04-09T09:38:15;98486.45;;;8.54;100.00
50011;BME280;35899;50.352;19.390;2023-04-09T09:40:43;98484.25;;;8.60;100.00
50011;BME280;35899;50.352;19.390;2023-04-09T09:43:12;98485.96;;;8.67;100.00
50011;BME280;35899;50.352;19.390;2023-04-09T09:45:41;98486.23;;;8.75;100.00
50011;BME280;35899;50.352;19.390;2023-04-09T09:48:09;98487.16;;;8.84;100.00
50011;BME280;35899;50.352;19.390;2023-04-09T09:50:41;98488.82;;;8.91;100.00
50011;BME280;35899;50.352;19.390;2023-04-09T09:53:10;98482.96;;;8.97;100.00
50011;BME280;35899;50.352;19.390;2023-04-09T09:55:39;98482.16;;;9.03;100.00
50011;BME280;35899;50.352;19.390;2023-04-09T09:58:11;98483.00;;;9.09;100.00
50011;BME280;35899;50.352;19.390;2023-04-09T10:00:43;98478.77;;;9.14;100.00
50011;BME280;35899;50.352;19.390;2023-04-09T10:03:13;98482.20;;;9.17;100.00
50011;BME280;35899;50.352;19.390;2023-04-09T10:05:41;98479.45;;;9.23;100.00
50011;BME280;35899;50.352;19.390;2023-04-09T10:08:11;98482.58;;;9.32;100.00
50011;BME280;35899;50.352;19.390;2023-04-09T10:10:45;98481.05;;;9.47;100.00
50011;BME280;35899;50.352;19.390;2023-04-09T10:16:00;98476.84;;;9.66;99.94
50011;BME280;35899;50.352;19.390;2023-04-09T10:18:28;98474.00;;;9.76;100.00
50011;BME280;35899;50.352;19.390;2023-04-09T10:23:40;98469.91;;;9.88;99.61
50011;BME280;35899;50.352;19.390;2023-04-09T10:26:08;98470.62;;;10.02;99.24
50011;BME280;35899;50.352;19.390;2023-04-09T10:28:37;98469.04;;;10.20;99.22
50011;BME280;35899;50.352;19.390;2023-04-09T10:31:05;98466.04;;;10.36;98.65
50011;BME280;35899;50.352;19.390;2023-04-09T10:36:17;98464.39;;;10.60;98.04
50011;BME280;35899;50.352;19.390;2023-04-09T10:38:45;98462.23;;;10.72;97.54
50011;BME280;35899;50.352;19.390;2023-04-09T10:41:14;98460.59;;;10.88;97.35
50011;BME280;35899;50.352;19.390;2023-04-09T10:43:45;98456.50;;;11.20;96.82
50011;BME280;35899;50.352;19.390;2023-04-09T10:49:23;98455.00;;;12.01;94.71
50011;BME280;35899;50.352;19.390;2023-04-09T10:57:10;98458.05;;;12.33;92.54
50011;BME280;35899;50.352;19.390;2023-04-09T10:59:39;98453.52;;;12.61;92.22
50011;BME280;35899;50.352;19.390;2023-04-09T11:02:08;98450.52;;;12.84;91.16
50011;BME280;35899;50.352;19.390;2023-04-09T11:10:56;98443.98;;;13.46;88.20
50011;BME280;35899;50.352;19.390;2023-04-09T11:13:46;98443.96;;;13.76;87.89
50011;BME280;35899;50.352;19.390;2023-04-09T11:16:23;98448.85;;;14.59;85.98
50011;BME280;35899;50.352;19.390;2023-04-09T11:19:14;98450.67;;;14.73;84.18
50011;BME280;35899;50.352;19.390;2023-04-09T11:21:46;98446.17;;;14.93;83.13
50011;BME280;35899;50.352;19.390;2023-04-09T11:24:17;98443.89;;;15.06;82.79
50011;BME280;35899;50.352;19.390;2023-04-09T11:27:07;98440.91;;;15.08;82.51
50011;BME280;35899;50.352;19.390;2023-04-09T11:29:45;98438.72;;;15.01;81.88
50011;BME280;35899;50.352;19.390;2023-04-09T11:32:13;98446.22;;;15.05;80.72
50011;BME280;35899;50.352;19.390;2023-04-09T11:34:54;98446.18;;;15.36;79.79
50011;BME280;35899;50.352;19.390;2023-04-09T11:37:44;98447.02;;;16.14;77.16
50011;BME280;35899;50.352;19.390;2023-04-09T11:43:27;98438.89;;;19.49;71.48
50011;BME280;35899;50.352;19.390;2023-04-09T11:46:07;98437.36;;;19.79;70.49
50011;BME280;35899;50.352;19.390;2023-04-09T11:49:00;98437.58;;;19.75;69.59
50011;BME280;35899;50.352;19.390;2023-04-09T11:51:32;98436.79;;;19.97;68.77
50011;BME280;35899;50.352;19.390;2023-04-09T11:57:32;98432.58;;;21.48;61.71
50011;BME280;35899;50.352;19.390;2023-04-09T12:00:14;98428.13;;;22.99;60.46
50011;BME280;35899;50.352;19.390;2023-04-09T12:03:02;98426.21;;;24.88;58.32
50011;BME280;35899;50.352;19.390;2023-04-09T12:05:49;98427.96;;;26.46;51.24
50011;BME280;35899;50.352;19.390;2023-04-09T12:09:15;98429.85;;;27.12;49.98
50011;BME280;35899;50.352;19.390;2023-04-09T12:14:22;98427.36;;;26.38;49.82
50011;BME280;35899;50.352;19.390;2023-04-09T12:16:51;98426.67;;;26.07;48.45
50011;BME280;35899;50.352;19.390;2023-04-09T12:19:19;98421.77;;;26.15;47.58
50011;BME280;35899;50.352;19.390;2023-04-09T12:21:54;98420.56;;;26.29;46.65
50011;BME280;35899;50.352;19.390;2023-04-09T12:24:29;98420.59;;;25.15;47.76
50011;BME280;35899;50.352;19.390;2023-04-09T12:27:00;98424.14;;;23.66;46.35
50011;BME280;35899;50.352;19.390;2023-04-09T12:29:29;98422.17;;;22.08;47.57
50011;BME280;35899;50.352;19.390;2023-04-09T12:32:00;98425.83;;;20.75;48.91
50011;BME280;35899;50.352;19.390;2023-04-09T12:34:49;98425.00;;;19.59;50.69
50011;BME280;35899;50.352;19.390;2023-04-09T12:37:29;98424.69;;;18.68;52.45
50011;BME280;35899;50.352;19.390;2023-04-09T12:39:57;98426.77;;;18.14;53.99
50011;BME280;35899;50.352;19.390;2023-04-09T12:42:31;98425.44;;;17.71;54.42
50011;BME280;35899;50.352;19.390;2023-04-09T12:45:01;98422.83;;;17.26;54.47
50011;BME280;35899;50.352;19.390;2023-04-09T12:47:29;98422.98;;;16.79;54.81
50011;BME280;35899;50.352;19.390;2023-04-09T12:49:59;98428.28;;;16.54;55.93
50011;BME280;35899;50.352;19.390;2023-04-09T12:52:33;98424.14;;;16.52;56.45
50011;BME280;35899;50.352;19.390;2023-04-09T12:55:04;98427.34;;;16.45;56.85
50011;BME280;35899;50.352;19.390;2023-04-09T12:57:37;98417.04;;;16.34;56.92
50011;BME280;35899;50.352;19.390;2023-04-09T13:00:06;98417.31;;;16.19;56.94
50011;BME280;35899;50.352;19.390;2023-04-09T13:02:37;98418.83;;;16.01;57.28
50011;BME280;35899;50.352;19.390;2023-04-09T13:05:11;98416.60;;;15.95;57.75
50011;BME280;35899;50.352;19.390;2023-04-09T13:07:45;98411.77;;;15.84;57.89
50011;BME280;35899;50.352;19.390;2023-04-09T13:10:13;98410.38;;;15.71;57.43
50011;BME280;35899;50.352;19.390;2023-04-09T13:12:41;98412.34;;;15.53;57.63
50011;BME280;35899;50.352;19.390;2023-04-09T13:15:09;98411.05;;;15.41;58.05
50011;BME280;35899;50.352;19.390;2023-04-09T13:17:37;98413.38;;;15.32;58.34
50011;BME280;35899;50.352;19.390;2023-04-09T13:20:05;98412.04;;;15.10;58.80
50011;BME280;35899;50.352;19.390;2023-04-09T13:22:36;98411.59;;;14.78;59.38
50011;BME280;35899;50.352;19.390;2023-04-09T13:25:04;98414.83;;;14.50;59.97
50011;BME280;35899;50.352;19.390;2023-04-09T13:27:33;98416.86;;;14.22;60.88
50011;BME280;35899;50.352;19.390;2023-04-09T13:30:01;98416.06;;;13.96;61.07
50011;BME280;35899;50.352;19.390;2023-04-09T13:32:30;98418.99;;;13.68;61.44
50011;BME280;35899;50.352;19.390;2023-04-09T13:34:58;98413.19;;;13.41;61.72
50011;BME280;35899;50.352;19.390;2023-04-09T13:37:26;98414.83;;;13.19;61.99
50011;BME280;35899;50.352;19.390;2023-04-09T13:39:56;98415.50;;;12.90;62.65
50011;BME280;35899;50.352;19.390;2023-04-09T13:42:24;98417.61;;;12.73;63.66
50011;BME280;35899;50.352;19.390;2023-04-09T13:44:52;98420.64;;;12.57;64.32
50011;BME280;35899;50.352;19.390;2023-04-09T13:47:20;98421.78;;;12.43;64.67
50011;BME280;35899;50.352;19.390;2023-04-09T13:49:48;98423.44;;;12.37;65.59
50011;BME280;35899;50.352;19.390;2023-04-09T13:52:16;98421.02;;;12.41;66.31
50011;BME280;35899;50.352;19.390;2023-04-09T13:54:44;98419.84;;;12.53;66.48